createdAt,value
2017-10-19T00:01:25.573Z,32.20
2017-10-19T00:03:53.016Z,32.73
2017-10-19T00:06:20.479Z,20.83
2017-10-19T00:08:47.925Z,30.13
2017-10-19T00:11:15.392Z,29.57
2017-10-19T00:13:42.866Z,30.43
2017-10-19T00:16:10.321Z,26.90
2017-10-19T00:18:37.769Z,30.33
2017-10-19T00:21:05.233Z,35.10
2017-10-19T00:23:32.708Z,26.97
2017-10-19T00:26:00.530Z,30.63
2017-10-19T00:28:27.980Z,28.40
2017-10-19T00:30:55.435Z,30.00
2017-10-19T00:33:22.997Z,30.63
2017-10-19T00:35:50.446Z,25.70
2017-10-19T00:38:17.893Z,30.43
2017-10-19T00:40:46.128Z,27.90
2017-10-19T00:43:13.593Z,29.20
2017-10-19T00:45:41.041Z,30.27
2017-10-19T00:48:08.504Z,29.63
2017-10-19T00:50:35.980Z,30.50
2017-10-19T00:53:03.424Z,28.77
2017-10-19T00:55:30.909Z,32.27
2017-10-19T00:57:59.129Z,31.97
2017-10-19T01:00:26.568Z,27.57
2017-10-19T01:02:54.050Z,23.93
2017-10-19T01:05:21.492Z,37.50
2017-10-19T01:07:49.256Z,33.13
2017-10-19T01:10:16.721Z,31.90
2017-10-19T01:12:44.172Z,29.10
2017-10-19T01:15:11.656Z,39.10
2017-10-19T01:17:39.105Z,25.50
2017-10-19T01:20:06.553Z,35.73
2017-10-19T01:22:34.025Z,30.60
2017-10-19T01:25:01.469Z,27.80
2017-10-19T01:27:28.949Z,31.77
2017-10-19T01:29:56.392Z,26.13
2017-10-19T01:32:23.841Z,32.93
2017-10-19T01:34:51.313Z,41.30
2017-10-19T01:37:18.760Z,32.37
2017-10-19T01:39:46.206Z,38.67
2017-10-19T01:42:13.679Z,35.90
2017-10-19T01:44:45.909Z,35.10
2017-10-19T01:47:13.372Z,31.03
2017-10-19T01:49:52.692Z,29.63
2017-10-19T01:52:20.928Z,32.00
2017-10-19T01:54:53.189Z,35.17
2017-10-19T01:57:20.652Z,36.87
2017-10-19T01:59:48.696Z,36.80
2017-10-19T02:02:16.180Z,39.43
2017-10-19T02:04:43.620Z,38.00
2017-10-19T02:07:11.078Z,32.97
2017-10-19T02:09:38.553Z,33.83
2017-10-19T02:12:06.005Z,31.10
2017-10-19T02:14:33.477Z,30.27
2017-10-19T02:17:00.917Z,30.73
2017-10-19T02:19:28.380Z,36.60
2017-10-19T02:21:55.828Z,29.93
2017-10-19T02:24:23.301Z,32.60
2017-10-19T02:26:50.774Z,30.10
2017-10-19T02:29:18.252Z,34.70
2017-10-19T02:31:45.701Z,36.20
2017-10-19T02:34:13.183Z,32.03
2017-10-19T02:36:41.410Z,37.53
2017-10-19T02:39:08.870Z,28.77
2017-10-19T02:41:36.346Z,31.80
2017-10-19T02:44:03.793Z,29.60
2017-10-19T02:46:31.242Z,28.47
2017-10-19T02:48:58.711Z,29.87
2017-10-19T02:51:26.157Z,28.63
2017-10-19T02:53:53.623Z,32.63
2017-10-19T02:56:21.070Z,26.00
2017-10-19T02:58:48.542Z,34.47
2017-10-19T03:01:15.992Z,35.90
2017-10-19T03:03:43.449Z,39.87
2017-10-19T03:06:10.903Z,32.43
2017-10-19T03:08:38.374Z,35.00
2017-10-19T03:11:05.816Z,32.00
2017-10-19T03:13:33.272Z,30.87
2017-10-19T03:16:00.765Z,31.63
2017-10-19T03:18:28.981Z,33.23
2017-10-19T03:20:56.434Z,30.30
2017-10-19T03:23:23.906Z,34.90
2017-10-19T03:25:51.349Z,29.53
2017-10-19T03:28:18.826Z,34.33
2017-10-19T03:30:46.281Z,31.03
2017-10-19T03:33:13.762Z,32.57
2017-10-19T03:35:41.318Z,35.80
2017-10-19T03:38:08.749Z,38.83
2017-10-19T03:40:36.226Z,32.20
2017-10-19T03:43:03.698Z,33.13
2017-10-19T03:45:31.134Z,29.63
2017-10-19T03:47:58.621Z,43.47
2017-10-19T03:50:26.089Z,32.70
2017-10-19T03:52:53.566Z,35.13
2017-10-19T03:55:21.805Z,33.33
2017-10-19T03:57:49.260Z,42.77
2017-10-19T04:00:16.745Z,33.70
2017-10-19T04:02:44.962Z,34.57
2017-10-19T04:05:12.414Z,32.30
2017-10-19T04:07:39.887Z,28.87
2017-10-19T04:10:07.358Z,32.53
2017-10-19T04:12:34.825Z,32.37
2017-10-19T04:15:02.282Z,31.40
2017-10-19T04:17:29.738Z,37.03
2017-10-19T04:19:57.197Z,35.50
2017-10-19T04:22:24.638Z,30.53
2017-10-19T04:24:52.126Z,32.93
2017-10-19T04:27:19.584Z,34.80
2017-10-19T04:29:47.032Z,34.70
2017-10-19T04:32:14.492Z,36.93
2017-10-19T04:34:41.946Z,31.33
2017-10-19T04:37:09.426Z,31.60
2017-10-19T04:39:36.873Z,26.10
2017-10-19T04:42:04.356Z,32.80
2017-10-19T04:44:32.607Z,28.63
2017-10-19T04:47:00.067Z,31.20
2017-10-19T04:49:27.504Z,37.03
2017-10-19T04:51:54.973Z,37.87
2017-10-19T04:54:22.426Z,26.20
2017-10-19T04:56:49.948Z,30.33
2017-10-19T04:59:17.380Z,44.37
2017-10-19T05:01:45.609Z,26.97
2017-10-19T05:04:13.058Z,28.00
2017-10-19T05:06:40.521Z,34.33
2017-10-19T05:09:08.002Z,30.73
2017-10-19T05:11:35.440Z,28.30
2017-10-19T05:14:02.888Z,42.30
2017-10-19T05:16:30.374Z,34.60
2017-10-19T05:18:57.821Z,30.33
2017-10-19T05:21:25.264Z,37.10
2017-10-19T05:23:52.729Z,31.50
2017-10-19T05:26:20.185Z,33.47
2017-10-19T05:28:47.644Z,32.37
2017-10-19T05:31:15.089Z,30.33
2017-10-19T05:33:42.552Z,34.80
2017-10-19T05:36:09.996Z,35.23
2017-10-19T05:38:37.462Z,36.63
2017-10-19T05:41:04.917Z,35.43
2017-10-19T05:43:32.376Z,34.30
2017-10-19T05:45:59.825Z,37.10
2017-10-19T05:48:27.315Z,30.37
2017-10-19T05:50:54.803Z,31.50
2017-10-19T05:53:23.020Z,37.40
2017-10-19T05:55:50.513Z,32.20
2017-10-19T05:58:17.956Z,34.07
2017-10-19T06:00:45.411Z,26.40
2017-10-19T06:03:12.873Z,31.57
2017-10-19T06:05:41.154Z,31.30
2017-10-19T06:08:08.611Z,39.00
2017-10-19T06:10:36.088Z,33.20
2017-10-19T06:13:03.567Z,31.10
2017-10-19T06:15:31.781Z,38.77
2017-10-19T06:17:59.328Z,33.90
2017-10-19T06:20:26.766Z,33.77
2017-10-19T06:22:54.269Z,31.10
2017-10-19T06:25:21.744Z,24.20
2017-10-19T06:27:49.217Z,31.97
2017-10-19T06:30:17.461Z,35.97
2017-10-19T06:32:44.932Z,30.40
2017-10-19T06:35:12.385Z,36.20
2017-10-19T06:37:39.836Z,40.17
2017-10-19T06:40:07.301Z,30.93
2017-10-19T06:42:34.753Z,31.03
2017-10-19T06:45:02.240Z,28.57
2017-10-19T06:47:29.690Z,31.47
2017-10-19T06:49:57.187Z,33.17
2017-10-19T06:52:24.673Z,34.30
2017-10-19T06:54:52.420Z,40.33
2017-10-19T06:57:19.895Z,41.87
2017-10-19T06:59:47.382Z,33.53
2017-10-19T07:02:15.621Z,41.20
2017-10-19T07:04:43.089Z,34.77
2017-10-19T07:07:10.540Z,40.70
2017-10-19T07:09:38.039Z,47.23
2017-10-19T07:12:05.518Z,47.30
2017-10-19T07:14:33.780Z,57.47
2017-10-19T07:17:01.270Z,57.30
2017-10-19T07:19:28.745Z,61.17
2017-10-19T07:21:56.192Z,50.43
2017-10-19T07:24:24.348Z,54.33
2017-10-19T07:26:51.803Z,54.67
2017-10-19T07:29:20.023Z,53.83
2017-10-19T07:31:47.513Z,61.33
2017-10-19T07:34:14.948Z,61.87
2017-10-19T07:36:42.499Z,51.83
2017-10-19T07:39:09.934Z,62.00
2017-10-19T07:41:37.700Z,59.23
2017-10-19T07:44:05.154Z,64.70
2017-10-19T07:46:32.629Z,55.37
2017-10-19T07:49:00.089Z,64.37
2017-10-19T07:51:27.529Z,49.60
2017-10-19T07:53:55.010Z,50.73
2017-10-19T07:56:22.476Z,54.20
2017-10-19T07:58:49.957Z,59.93
2017-10-19T08:01:17.406Z,52.00
2017-10-19T08:03:44.878Z,51.37
2017-10-19T08:06:13.093Z,51.03
2017-10-19T08:08:40.574Z,58.20
2017-10-19T08:11:08.013Z,59.00
2017-10-19T08:13:35.510Z,48.07
2017-10-19T08:16:02.963Z,55.97
2017-10-19T08:18:30.420Z,56.20
2017-10-19T08:20:58.644Z,53.20
2017-10-19T08:23:26.089Z,53.33
2017-10-19T08:25:54.335Z,62.13
2017-10-19T08:28:21.781Z,60.67
2017-10-19T08:30:49.240Z,58.23
2017-10-19T08:33:16.703Z,64.50
2017-10-19T08:35:44.173Z,59.90
2017-10-19T08:38:11.625Z,57.43
2017-10-19T08:40:39.089Z,53.87
2017-10-19T08:43:06.574Z,57.33
2017-10-19T08:45:34.016Z,56.47
2017-10-19T08:48:02.265Z,61.90
2017-10-19T08:50:29.725Z,60.80
2017-10-19T08:52:57.172Z,54.47
2017-10-19T08:55:24.677Z,54.90
2017-10-19T08:57:52.928Z,54.83
2017-10-19T09:00:20.377Z,56.80
2017-10-19T09:02:47.833Z,56.80
2017-10-19T09:05:15.302Z,53.83
2017-10-19T09:07:42.781Z,53.40
2017-10-19T09:10:11.010Z,52.60
2017-10-19T09:12:38.460Z,59.93
2017-10-19T09:15:05.942Z,46.57
2017-10-19T09:17:33.384Z,51.93
2017-10-19T09:20:00.862Z,48.13
2017-10-19T09:22:28.329Z,50.33
2017-10-19T09:24:55.781Z,51.40
2017-10-19T09:27:23.261Z,49.67
2017-10-19T09:29:51.489Z,47.07
2017-10-19T09:32:18.957Z,48.67
2017-10-19T09:34:46.430Z,50.73
2017-10-19T09:37:13.876Z,50.50
2017-10-19T09:39:41.365Z,42.60
2017-10-19T09:42:09.585Z,52.47
2017-10-19T09:44:37.032Z,49.30
2017-10-19T09:47:04.520Z,49.80
2017-10-19T09:49:31.956Z,51.53
2017-10-19T09:51:59.437Z,54.90
2017-10-19T09:54:26.886Z,51.37
2017-10-19T09:56:54.357Z,54.70
2017-10-19T09:59:21.879Z,51.67
2017-10-19T10:01:49.342Z,56.13
2017-10-19T10:04:16.798Z,51.07
2017-10-19T10:06:44.293Z,59.20
2017-10-19T10:09:11.767Z,55.80
2017-10-19T10:11:39.222Z,53.10
2017-10-19T10:14:07.035Z,56.23
2017-10-19T10:16:34.501Z,57.67
2017-10-19T10:19:01.974Z,51.00
2017-10-19T10:21:29.430Z,52.93
2017-10-19T10:23:56.926Z,55.30
2017-10-19T10:26:25.152Z,52.07
2017-10-19T10:28:52.904Z,55.47
2017-10-19T10:31:20.384Z,57.70
2017-10-19T10:33:47.830Z,59.67
2017-10-19T10:36:15.315Z,55.40
2017-10-19T10:38:42.789Z,48.83
2017-10-19T10:41:10.273Z,52.60
2017-10-19T10:43:38.489Z,52.83
2017-10-19T10:46:05.936Z,67.07
2017-10-19T10:48:33.692Z,64.63
2017-10-19T10:51:01.146Z,51.00
2017-10-19T10:53:28.631Z,54.67
2017-10-19T10:55:56.063Z,61.23
2017-10-19T10:58:23.509Z,53.10
2017-10-19T11:00:50.986Z,62.77
2017-10-19T11:03:18.447Z,54.33
2017-10-19T11:05:45.898Z,51.00
2017-10-19T11:08:13.822Z,46.30
2017-10-19T11:10:41.355Z,57.77
2017-10-19T11:13:08.793Z,48.50
2017-10-19T11:15:36.327Z,46.13
2017-10-19T11:18:03.822Z,50.53
2017-10-19T11:20:31.278Z,48.13
2017-10-19T11:22:58.749Z,47.63
2017-10-19T11:25:26.212Z,48.50
2017-10-19T11:27:53.658Z,50.70
2017-10-19T11:30:21.129Z,55.40
2017-10-19T11:32:48.625Z,54.43
2017-10-19T11:35:16.843Z,48.77
2017-10-19T11:37:44.289Z,56.17
2017-10-19T11:40:11.783Z,52.43
2017-10-19T11:42:39.233Z,55.27
2017-10-19T11:45:06.690Z,51.67
2017-10-19T11:47:34.172Z,48.63
2017-10-19T11:50:02.389Z,55.33
2017-10-19T11:52:29.864Z,49.90
2017-10-19T11:54:57.308Z,49.87
2017-10-19T11:57:24.761Z,52.60
2017-10-19T11:59:52.241Z,54.70
2017-10-19T12:02:19.747Z,48.70
2017-10-19T12:04:47.962Z,56.73
2017-10-19T12:07:15.426Z,51.60
2017-10-19T12:09:42.900Z,51.77
2017-10-19T12:12:10.712Z,49.67
2017-10-19T12:14:38.192Z,50.47
2017-10-19T12:17:05.650Z,47.97
2017-10-19T12:19:33.116Z,50.43
2017-10-19T12:22:00.875Z,43.73
2017-10-19T12:24:28.326Z,52.57
2017-10-19T12:26:55.774Z,61.40
2017-10-19T12:29:23.245Z,53.43
2017-10-19T12:31:50.705Z,49.03
2017-10-19T12:34:18.209Z,45.90
2017-10-19T12:36:45.701Z,43.87
2017-10-19T12:39:13.153Z,48.40
2017-10-19T12:41:40.638Z,46.70
2017-10-19T12:44:08.093Z,48.43
2017-10-19T12:46:35.585Z,50.63
2017-10-19T12:49:03.049Z,53.10
2017-10-19T12:51:30.492Z,51.60
2017-10-19T12:53:57.975Z,40.90
2017-10-19T12:56:25.448Z,55.00
2017-10-19T12:58:53.676Z,47.60
2017-10-19T13:01:21.142Z,53.50
2017-10-19T13:03:48.622Z,46.53
2017-10-19T13:06:16.077Z,50.43
2017-10-19T13:08:43.532Z,50.97
2017-10-19T13:11:11.001Z,43.77
2017-10-19T13:13:38.469Z,51.23
2017-10-19T13:16:06.717Z,51.53
2017-10-19T13:18:34.173Z,53.47
2017-10-19T13:21:01.636Z,40.67
2017-10-19T13:23:29.358Z,50.27
2017-10-19T13:25:56.829Z,48.77
2017-10-19T13:28:24.295Z,47.43
2017-10-19T13:30:51.780Z,51.33
2017-10-19T13:33:19.286Z,47.70
2017-10-19T13:35:46.744Z,50.87
2017-10-19T13:38:14.197Z,43.67
2017-10-19T13:40:41.650Z,46.10
2017-10-19T13:43:09.128Z,47.37
2017-10-19T13:45:36.584Z,44.20
2017-10-19T13:48:04.034Z,45.53
2017-10-19T13:50:31.509Z,44.70
2017-10-19T13:52:58.965Z,40.70
2017-10-19T13:55:26.657Z,44.17
2017-10-19T13:57:54.133Z,46.50
2017-10-19T14:00:22.370Z,41.40
2017-10-19T14:02:49.845Z,42.30
2017-10-19T14:05:17.342Z,42.37
2017-10-19T14:07:44.784Z,40.83
2017-10-19T14:10:13.043Z,44.27
2017-10-19T14:12:40.555Z,45.17
2017-10-19T14:15:07.994Z,45.33
2017-10-19T14:17:35.446Z,50.73
2017-10-19T14:20:03.685Z,42.90
2017-10-19T14:22:31.163Z,45.87
2017-10-19T14:24:58.666Z,46.10
2017-10-19T14:27:26.122Z,46.40
2017-10-19T14:29:53.604Z,53.20
2017-10-19T14:32:21.057Z,56.67
2017-10-19T14:34:48.527Z,47.33
2017-10-19T14:37:15.978Z,51.03
2017-10-19T14:39:43.741Z,45.63
2017-10-19T14:42:11.202Z,46.50
2017-10-19T14:44:38.655Z,43.13
2017-10-19T14:47:07.216Z,45.60
2017-10-19T14:49:34.690Z,48.77
2017-10-19T14:52:02.174Z,42.23
2017-10-19T14:54:29.686Z,43.43
2017-10-19T14:56:57.965Z,46.77
2017-10-19T14:59:25.436Z,46.70
2017-10-19T15:01:52.982Z,48.33
2017-10-19T15:04:20.443Z,44.00
2017-10-19T15:06:47.918Z,51.70
2017-10-19T15:09:15.362Z,42.17
2017-10-19T15:11:42.835Z,42.93
2017-10-19T15:14:10.282Z,47.00
2017-10-19T15:16:37.758Z,46.33
2017-10-19T15:19:05.224Z,46.30
2017-10-19T15:21:32.665Z,53.90
2017-10-19T15:24:00.146Z,54.53
2017-10-19T15:26:27.593Z,45.33
2017-10-19T15:28:55.046Z,53.73
2017-10-19T15:31:22.522Z,49.00
2017-10-19T15:33:50.136Z,57.87
2017-10-19T15:36:17.585Z,50.70
2017-10-19T15:38:45.045Z,49.53
2017-10-19T15:41:12.518Z,45.63
2017-10-19T15:43:39.974Z,49.53
2017-10-19T15:46:07.445Z,46.60
2017-10-19T15:48:34.921Z,51.80
2017-10-19T15:51:13.389Z,56.17
2017-10-19T15:53:40.878Z,52.50
2017-10-19T15:56:08.345Z,49.60
2017-10-19T15:58:35.834Z,52.33
2017-10-19T16:01:04.053Z,52.77
2017-10-19T16:03:31.526Z,50.50
2017-10-19T16:05:58.967Z,51.67
2017-10-19T16:08:26.419Z,60.47
2017-10-19T16:10:53.876Z,53.40
2017-10-19T16:13:24.530Z,50.97
2017-10-19T16:15:52.075Z,55.07
2017-10-19T16:18:19.505Z,51.20
2017-10-19T16:20:46.981Z,52.30
2017-10-19T16:23:14.470Z,55.13
2017-10-19T16:25:41.921Z,63.93
2017-10-19T16:28:09.374Z,62.07
2017-10-19T16:30:37.124Z,50.37
2017-10-19T16:33:04.561Z,59.90
2017-10-19T16:35:32.005Z,59.07
2017-10-19T16:37:59.468Z,57.60
2017-10-19T16:40:27.747Z,62.33
2017-10-19T16:42:55.973Z,64.40
2017-10-19T16:45:23.454Z,63.43
2017-10-19T16:47:50.906Z,64.60
2017-10-19T16:50:18.354Z,62.30
2017-10-19T16:52:45.817Z,66.97
2017-10-19T16:55:13.289Z,66.70
2017-10-19T16:57:40.758Z,67.30
2017-10-19T17:00:08.974Z,52.30
2017-10-19T17:02:36.449Z,59.17
2017-10-19T17:05:03.988Z,58.50
2017-10-19T17:07:31.466Z,64.17
2017-10-19T17:09:58.908Z,74.73
2017-10-19T17:12:26.380Z,63.17
2017-10-19T17:14:53.836Z,58.50
2017-10-19T17:17:21.382Z,61.37
2017-10-19T17:19:48.826Z,58.63
2017-10-19T17:22:16.319Z,54.63
2017-10-19T17:24:43.854Z,58.97
2017-10-19T17:27:11.313Z,63.13
2017-10-19T17:29:38.795Z,59.00
2017-10-19T17:32:06.260Z,60.33
2017-10-19T17:34:33.713Z,63.63
2017-10-19T17:37:02.009Z,68.20
2017-10-19T17:39:29.455Z,62.73
2017-10-19T17:41:56.900Z,67.73
2017-10-19T17:44:24.386Z,73.27
2017-10-19T17:46:51.842Z,65.97
2017-10-19T17:49:19.304Z,64.43
2017-10-19T17:51:46.860Z,60.23
2017-10-19T17:54:14.320Z,63.83
2017-10-19T17:56:41.805Z,67.20
2017-10-19T17:59:10.030Z,71.23
2017-10-19T18:01:37.526Z,70.13
2017-10-19T18:04:05.749Z,68.73
2017-10-19T18:06:33.497Z,75.10
2017-10-19T18:09:00.975Z,77.87
2017-10-19T18:14:21.317Z,71.50
2017-10-19T18:16:48.766Z,68.77
2017-10-19T18:19:16.213Z,68.43
2017-10-19T18:21:43.693Z,74.00
2017-10-19T18:24:11.909Z,68.50
2017-10-19T18:26:39.358Z,74.70
2017-10-19T18:29:06.849Z,74.37
2017-10-19T18:31:34.300Z,75.57
2017-10-19T18:34:01.763Z,61.20
2017-10-19T18:36:29.239Z,65.17
2017-10-19T18:38:56.683Z,69.57
2017-10-19T18:41:24.133Z,77.73
2017-10-19T18:43:51.630Z,73.67
2017-10-19T18:46:19.064Z,77.23
2017-10-19T18:48:46.514Z,71.87
2017-10-19T18:51:13.980Z,79.87
2017-10-19T18:53:41.433Z,65.83
2017-10-19T18:56:08.944Z,75.50
2017-10-19T18:58:36.806Z,82.87
2017-10-19T19:01:05.115Z,76.00
2017-10-19T19:03:32.549Z,78.87
2017-10-19T19:06:00.025Z,79.50
2017-10-19T19:08:27.485Z,75.47
2017-10-19T19:10:54.942Z,75.60
2017-10-19T19:13:22.434Z,79.37
2017-10-19T19:15:49.894Z,84.57
2017-10-19T19:18:17.350Z,76.70
2017-10-19T19:20:44.834Z,69.30
2017-10-19T19:23:13.068Z,70.00
2017-10-19T19:25:41.318Z,77.57
2017-10-19T19:28:08.882Z,73.50
2017-10-19T19:30:36.349Z,89.27
2017-10-19T19:33:03.824Z,70.63
2017-10-19T19:35:31.272Z,79.77
2017-10-19T19:37:58.717Z,72.20
2017-10-19T19:40:26.205Z,70.37
2017-10-19T19:42:53.648Z,75.50
2017-10-19T19:45:21.123Z,78.37
2017-10-19T19:47:48.565Z,86.33
2017-10-19T19:50:16.062Z,73.77
2017-10-19T19:52:43.502Z,61.70
2017-10-19T19:55:10.948Z,72.30
2017-10-19T19:57:38.430Z,73.23
2017-10-19T20:00:07.411Z,72.50
2017-10-19T20:02:34.858Z,75.37
2017-10-19T20:05:02.321Z,70.83
2017-10-19T20:07:29.765Z,77.60
2017-10-19T20:09:57.234Z,75.53
2017-10-19T20:12:24.684Z,72.00
2017-10-19T20:14:52.161Z,83.70
2017-10-19T20:17:19.630Z,81.37
2017-10-19T20:19:47.080Z,75.93
2017-10-19T20:22:14.558Z,72.60
2017-10-19T20:24:42.761Z,93.07
2017-10-19T20:27:10.242Z,78.70
2017-10-19T20:29:37.686Z,86.00
2017-10-19T20:32:06.067Z,82.80
2017-10-19T20:34:33.513Z,79.87
2017-10-19T20:37:00.965Z,90.13
2017-10-19T20:39:28.442Z,82.90
2017-10-19T20:41:55.890Z,82.13
2017-10-19T20:44:23.365Z,70.17
2017-10-19T20:46:51.584Z,79.80
2017-10-19T20:49:20.101Z,76.03
2017-10-19T20:51:47.579Z,73.57
2017-10-19T20:54:15.322Z,76.93
2017-10-19T20:56:42.781Z,76.90
2017-10-19T20:59:10.250Z,71.27
2017-10-19T21:01:37.695Z,85.67
2017-10-19T21:04:05.169Z,87.30
2017-10-19T21:06:32.637Z,77.60
2017-10-19T21:09:00.873Z,83.43
2017-10-19T21:11:28.336Z,83.03
2017-10-19T21:13:55.793Z,80.20
2017-10-19T21:16:23.261Z,79.93
2017-10-19T21:18:50.734Z,84.17
2017-10-19T21:21:18.176Z,78.13
2017-10-19T21:23:45.641Z,82.70
2017-10-19T21:26:13.192Z,74.33
2017-10-19T21:28:40.632Z,71.97
2017-10-19T21:31:08.105Z,87.17
2017-10-19T21:33:35.565Z,76.00
2017-10-19T21:36:03.041Z,83.43
2017-10-19T21:38:30.489Z,78.23
2017-10-19T21:40:57.941Z,80.93
2017-10-19T21:43:25.409Z,81.63
2017-10-19T21:45:52.855Z,93.30
2017-10-19T21:48:20.338Z,81.53
2017-10-19T21:50:47.808Z,79.03
2017-10-19T21:53:15.259Z,75.07
2017-10-19T21:55:42.717Z,79.57
2017-10-19T21:58:10.191Z,77.00
2017-10-19T22:00:37.642Z,80.00
2017-10-19T22:03:05.101Z,81.17
2017-10-19T22:05:32.613Z,86.97
2017-10-19T22:08:00.070Z,90.20
2017-10-19T22:10:27.532Z,87.13
2017-10-19T22:12:54.989Z,85.33
2017-10-19T22:15:22.452Z,80.00
2017-10-19T22:17:49.897Z,86.30
2017-10-19T22:20:17.367Z,77.80
2017-10-19T22:22:44.850Z,78.00
2017-10-19T22:25:12.306Z,78.87
2017-10-19T22:27:40.517Z,80.03
2017-10-19T22:30:08.756Z,84.03
2017-10-19T22:32:36.210Z,83.60
2017-10-19T22:35:03.666Z,88.30
2017-10-19T22:37:31.138Z,88.40
2017-10-19T22:39:58.592Z,83.40
2017-10-19T22:42:26.055Z,86.63
2017-10-19T22:44:53.534Z,84.33
2017-10-19T22:47:21.751Z,86.13
2017-10-19T22:49:49.230Z,76.43
2017-10-19T22:52:16.684Z,76.60
2017-10-19T22:54:44.137Z,76.77
2017-10-19T22:57:11.607Z,79.67
2017-10-19T22:59:39.065Z,79.53
2017-10-19T23:02:06.521Z,77.13
2017-10-19T23:04:34.001Z,70.60
2017-10-19T23:07:01.490Z,85.23
2017-10-19T23:09:28.937Z,75.57
2017-10-19T23:11:57.156Z,72.53
2017-10-19T23:14:24.912Z,77.77
2017-10-19T23:16:52.349Z,80.70
2017-10-19T23:19:19.816Z,80.10
2017-10-19T23:21:47.304Z,85.57
2017-10-19T23:24:14.744Z,76.57
2017-10-19T23:26:42.201Z,74.90
2017-10-19T23:29:09.672Z,80.00
2017-10-19T23:31:37.130Z,80.47
2017-10-19T23:34:04.585Z,72.33
2017-10-19T23:36:32.064Z,76.20
2017-10-19T23:38:59.508Z,87.17
2017-10-19T23:41:26.958Z,93.07
2017-10-19T23:43:54.420Z,81.97
2017-10-19T23:46:22.667Z,76.53
2017-10-19T23:48:50.105Z,85.97
2017-10-19T23:51:17.588Z,80.33
2017-10-19T23:53:45.049Z,88.67
2017-10-19T23:56:12.504Z,77.23
2017-10-19T23:58:40.063Z,73.23
